METAR Data
IDs: Format: Raw Decoded Include TAF

Data at: 0415 UTC 12 Dec 2018

KERV 120355Z AUTO 15006KT 10SM CLR 08/06 A3017 RMK AO2 T00780060
KERV 120335Z AUTO 14006KT 10SM CLR 07/05 A3018 RMK AO2 T00670047
KERV 120315Z AUTO 00000KT 10SM CLR 07/05 A3019 RMK AO2 T00710047
KERV 120255Z AUTO 14005KT 10SM CLR 08/05 A3019 RMK AO2 T00790051
KERV 120235Z AUTO 12003KT 10SM CLR 09/06 A3019 RMK AO2 T00850055
KERV 120215Z AUTO 12005KT 10SM CLR 08/05 A3019 RMK AO2 T00790050
KERV 120155Z AUTO 14004KT 10SM CLR 08/05 A3019 RMK AO2 T00770047
KERV 120135Z AUTO 13005KT 10SM CLR 08/05 A3019 RMK AO2 T00800047
KERV 120115Z AUTO 13005KT 10SM CLR 08/04 A3020 RMK AO2 T00760044
KERV 120055Z AUTO 13007KT 10SM CLR 08/05 A3019 RMK AO2 T00780045
KERV 120035Z AUTO 13004KT 10SM CLR 08/04 A3020 RMK AO2 T00790044

KT82 120355Z AUTO 19003KT 10SM CLR 09/05 A3016 RMK AO2 T00860053
KT82 120335Z AUTO 20003KT 10SM CLR 09/06 A3018 RMK AO2 T00900055
KT82 120315Z AUTO 19004KT 10SM CLR 09/05 A3018 RMK AO2 T00890051
KT82 120255Z AUTO 20005KT 10SM CLR 09/05 A3018 RMK AO2 T00900050
KT82 120235Z AUTO 20004KT 10SM CLR 09/05 A3019 RMK AO2 T00880047
KT82 120215Z AUTO 19004KT 10SM CLR 09/04 A3018 RMK AO2 T00860044
KT82 120155Z AUTO 20004KT 10SM CLR 08/04 A3019 RMK AO2 T00810037
KT82 120135Z AUTO 20004KT 10SM CLR 08/04 A3018 RMK AO2 T00820035
KT82 120115Z AUTO 20004KT 10SM CLR 08/03 A3019 RMK AO2 T00800031
KT82 120055Z AUTO 18004KT 10SM CLR 08/03 A3019 RMK AO2 T00770028
KT82 120035Z AUTO 18003KT 10SM CLR 08/03 A3019 RMK AO2 T00800027

KJCT 120351Z AUTO 00000KT 9SM CLR 06/04 A3016 RMK AO2 SLP199 T00610044
KJCT 120251Z AUTO 00000KT 10SM CLR 08/05 A3017 RMK AO2 SLP206 T00780050 58001
KJCT 120151Z AUTO 00000KT 10SM CLR 09/05 A3017 RMK AO2 SLP209 T00890050
KJCT 120051Z AUTO 13003KT 10SM CLR 09/05 A3018 RMK AO2 SLP211 T00940050

K5C1 120355Z AUTO 19003KT 10SM CLR 10/07 A3019 RMK AO1
K5C1 120335Z AUTO 19007KT 10SM CLR 10/07 A3020 RMK AO1
K5C1 120315Z AUTO 19007KT 10SM CLR 09/07 A3020 RMK AO1
K5C1 120255Z AUTO 00000KT 10SM CLR 09/06 A3020 RMK AO1
K5C1 120235Z AUTO 00000KT 10SM CLR 08/06 A3021 RMK AO1
K5C1 120215Z AUTO 00000KT 10SM CLR 08/05 A3022 RMK AO1
K5C1 120155Z AUTO 00000KT 10SM CLR 07/05 A3020 RMK AO1
K5C1 120135Z AUTO 00000KT 10SM CLR 07/05 A3022 RMK AO1
K5C1 120115Z AUTO 00000KT 10SM CLR 07/05 A3020 RMK AO1
K5C1 120055Z AUTO 00000KT 10SM CLR 07/05 A3021 RMK AO1
K5C1 120035Z AUTO 00000KT 10SM CLR 07/05 A3022 RMK AO1

KHDO 120351Z AUTO 13003KT 10SM CLR 09/07 A3019 RMK AO2 SLP219 T00940067
KHDO 120251Z AUTO 07003KT 10SM CLR 09/06 A3020 RMK AO2 SLP223 T00890056 53000
KHDO 120151Z AUTO 08004KT 10SM CLR 10/06 A3020 RMK AO2 SLP224 T01000056
KHDO 120051Z AUTO 11005KT 10SM CLR 11/06 A3020 RMK AO2 SLP224 T01110056

KMWL 120353Z AUTO 17010KT 10SM CLR 11/03 A3009 RMK AO2 SLP186 T01060033
KMWL 120253Z AUTO 17012KT 10SM CLR 11/03 A3009 RMK AO2 SLP187 T01060033 56002
KMWL 120153Z AUTO 16011KT 10SM CLR 11/03 A3009 RMK AO2 SLP189 T01110033
KMWL 120053Z AUTO 16010KT 10SM CLR 12/03 A3008 RMK AO2 SLP187 T01170033

KADM 120355Z 16005KT 10SM CLR 11/03 A3008
KADM 120255Z 19005KT 10SM CLR 11/04 A3008
KADM 120155Z 17006KT 10SM CLR 12/04 A3008
KADM 120055Z 14008KT 10SM SCT110 12/03 A3007

KJLN 120353Z AUTO 21021G29KT 10SM CLR 12/M01 A2997 RMK AO2 PK WND 21030/0340 SLP149 T01171006
KJLN 120253Z 21015G28KT 10SM CLR 12/01 A2997 RMK AO2 PK WND 21028/0248 SLP151 T01170006 50002
KJLN 120153Z 20015G24KT 10SM CLR 12/01 A2997 RMK AO2 SLP152 T01170006
KJLN 120053Z 18012KT 10SM CLR 11/00 A2998 RMK AO2 SLP154 T01110000

KSZL 120356Z 21016KT 10SM OVC170 09/00 A2983 RMK AO2A SLP107 WND DATA ESTMD T00860003 $
KSZL 120256Z 21012KT 10SM OVC160 09/00 A2986 RMK AO2A SLP119 WND DATA ESTMD T00901003 $
KSZL 120156Z COR 20012KT 10SM OVC160 09/M01 A2987 RMK AO2A SLP123 WND DATA ESTMD T00921010 $ COR 0218
KSZL 120056Z 20010KT 10SM OVC170 08/M01 A2989 RMK AO2A SLP131 WND DATA ESTMD T00841006 $

KCOU 120354Z AUTO 17012KT 10SM CLR 09/M03 A2992 RMK AO2 SLP133 T00891028
KCOU 120254Z 17012KT 10SM CLR 08/M03 A2995 RMK AO2 SLP144 T00831028 58010
KCOU 120154Z 18011KT 10SM CLR 09/M03 A2997 RMK AO2 SLP152 T00891028
KCOU 120054Z 17009KT 10SM CLR 08/M02 A2997 RMK AO2 SLP156 T00831022

KCWI 120356Z AUTO 10009KT 10SM CLR 01/M02 A2988 RMK AO2 SLP147 T00061017 FZRANO
KCWI 120256Z AUTO 10008KT 10SM CLR 00/M02 A2992 RMK AO2 SLP159 T00001022 58017 FZRANO
KCWI 120156Z AUTO 11008KT 10SM CLR 00/M02 A2995 RMK AO2 SLP172 T00001022 FZRANO
KCWI 120056Z AUTO 11008KT 10SM CLR 01/M03 A2997 RMK AO2 SLP176 T00061028 FZRANO

KJLN 120353Z AUTO 21021G29KT 10SM CLR 12/M01 A2997 RMK AO2 PK WND 21030/0340 SLP149 T01171006
KJLN 120253Z 21015G28KT 10SM CLR 12/01 A2997 RMK AO2 PK WND 21028/0248 SLP151 T01170006 50002
KJLN 120153Z 20015G24KT 10SM CLR 12/01 A2997 RMK AO2 SLP152 T01170006
KJLN 120053Z 18012KT 10SM CLR 11/00 A2998 RMK AO2 SLP154 T01110000

KOSH 120353Z 11006KT 6SM BR OVC013 M03/M05 A2999 RMK AO2 SLP173 T10281050
KOSH 120253Z 10007KT 7SM OVC012 M03/M05 A3000 RMK AO2 SLP178 T10331050 58013
KOSH 120153Z 11004KT 7SM OVC013 M03/M06 A3003 RMK AO2 SLP187 T10331056
KOSH 120053Z 12007KT 6SM BR OVC011 M03/M06 A3003 RMK AO2 SLP188 T10331056